createdAt,value
2023-02-05T00:01:33.131Z,103278.53
2023-02-05T00:04:00.018Z,103270.16
2023-02-05T00:06:27.083Z,103270.16
2023-02-05T00:08:53.708Z,103267.06
2023-02-05T00:11:20.344Z,103268.47
2023-02-05T00:13:46.953Z,103275.97
2023-02-05T00:16:19.371Z,103267.59
2023-02-05T00:18:46.472Z,103264.66
2023-02-05T00:21:14.077Z,103269.06
2023-02-05T00:23:41.447Z,103275.22
2023-02-05T00:26:08.744Z,103271.63
2023-02-05T00:28:36.678Z,103266.59
2023-02-05T00:31:11.850Z,103261.53
2023-02-05T00:33:39.042Z,103257.06
2023-02-05T00:36:06.162Z,103266.56
2023-02-05T00:38:32.978Z,103259.47
2023-02-05T00:41:00.085Z,103253.41
2023-02-05T00:43:26.688Z,103251.00
2023-02-05T00:45:53.528Z,103249.31
2023-02-05T00:48:20.365Z,103254.47
2023-02-05T00:50:52.683Z,103263.47
2023-02-05T00:53:22.047Z,103257.81
2023-02-05T00:55:48.694Z,103250.78
2023-02-05T00:58:15.774Z,103226.00
2023-02-05T01:00:43.375Z,103226.72
2023-02-05T01:03:10.290Z,103229.97
2023-02-05T01:05:37.825Z,103229.59
2023-02-05T01:08:05.491Z,103234.28
2023-02-05T01:10:32.602Z,103220.22
2023-02-05T01:12:59.883Z,103238.25
2023-02-05T01:15:26.544Z,103227.03
2023-02-05T01:17:53.149Z,103223.69
2023-02-05T01:20:20.529Z,103221.25
2023-02-05T01:22:47.456Z,103213.78
2023-02-05T01:25:14.288Z,103207.25
2023-02-05T01:27:41.240Z,103202.09
2023-02-05T01:30:11.747Z,103199.13
2023-02-05T01:32:40.544Z,103203.13
2023-02-05T01:35:08.523Z,103213.44
2023-02-05T01:37:35.314Z,103205.69
2023-02-05T01:40:08.790Z,103211.88
2023-02-05T01:42:35.416Z,103211.25
2023-02-05T01:45:29.768Z,103202.50
2023-02-05T01:48:00.871Z,103202.09
2023-02-05T01:50:43.487Z,103196.03
2023-02-05T01:53:12.523Z,103199.16
2023-02-05T01:55:45.801Z,103190.50
2023-02-05T01:58:12.603Z,103182.91
2023-02-05T02:00:39.262Z,103188.03
2023-02-05T02:03:06.165Z,103175.41
2023-02-05T02:05:33.047Z,103170.13
2023-02-05T02:07:59.995Z,103173.13
2023-02-05T02:10:29.359Z,103173.38
2023-02-05T02:12:56.236Z,103174.78
2023-02-05T02:15:25.923Z,103166.91
2023-02-05T02:17:56.011Z,103175.03
2023-02-05T02:20:26.699Z,103174.88
2023-02-05T02:22:56.228Z,103165.59
2023-02-05T02:25:49.768Z,103164.22
2023-02-05T02:28:27.125Z,103157.78
2023-02-05T02:31:04.824Z,103148.00
2023-02-05T02:33:31.379Z,103151.47
2023-02-05T02:36:01.268Z,103143.63
2023-02-05T02:38:36.725Z,103143.84
2023-02-05T02:41:27.304Z,103143.84
2023-02-05T02:43:58.200Z,103137.97
2023-02-05T02:46:31.002Z,103142.56
2023-02-05T02:49:01.627Z,103141.00
2023-02-05T02:51:29.283Z,103131.38
2023-02-05T02:53:58.253Z,103138.22
2023-02-05T02:56:26.933Z,103137.56
2023-02-05T02:58:57.016Z,103135.63
2023-02-05T03:01:25.057Z,103150.28
2023-02-05T03:03:58.745Z,103146.16
2023-02-05T03:06:26.592Z,103142.91
2023-02-05T03:09:04.962Z,103152.06
2023-02-05T03:11:31.820Z,103148.72
2023-02-05T03:13:58.637Z,103138.00
2023-02-05T03:16:26.828Z,103141.88
2023-02-05T03:18:54.192Z,103142.00
2023-02-05T03:21:30.352Z,103153.97
2023-02-05T03:23:57.113Z,103166.47
2023-02-05T03:26:35.169Z,103149.59
2023-02-05T03:29:04.197Z,103149.75
2023-02-05T03:31:47.269Z,103151.06
2023-02-05T03:34:26.032Z,103155.41
2023-02-05T03:37:16.870Z,103140.09
2023-02-05T03:40:05.167Z,103142.78
2023-02-05T03:42:40.760Z,103143.69
2023-02-05T03:45:38.646Z,103135.50
2023-02-05T03:48:16.182Z,103138.72
2023-02-05T03:51:04.647Z,103130.19
2023-02-05T03:53:39.232Z,103131.25
2023-02-05T03:56:10.007Z,103136.16
2023-02-05T03:58:41.193Z,103147.72
2023-02-05T04:01:09.295Z,103161.13
2023-02-05T04:03:36.166Z,103158.53
2023-02-05T04:06:03.098Z,103154.44
2023-02-05T04:08:29.720Z,103153.75
2023-02-05T04:10:56.807Z,103155.19
2023-02-05T04:13:26.406Z,103158.28
2023-02-05T04:15:53.065Z,103160.09
2023-02-05T04:18:19.643Z,103158.53
2023-02-05T04:20:46.272Z,103162.53
2023-02-05T04:23:12.960Z,103159.47
2023-02-05T04:25:39.699Z,103147.88
2023-02-05T04:28:06.831Z,103148.75
2023-02-05T04:30:33.746Z,103139.13
2023-02-05T04:33:00.409Z,103137.06
2023-02-05T04:35:27.093Z,103129.31
2023-02-05T04:37:53.711Z,103123.78
2023-02-05T04:40:20.342Z,103133.69
2023-02-05T04:42:47.103Z,103129.69
2023-02-05T04:45:13.763Z,103134.50
2023-02-05T04:47:40.394Z,103140.91
2023-02-05T04:50:07.087Z,103142.72
2023-02-05T04:52:33.723Z,103150.06
2023-02-05T04:55:00.353Z,103145.94
2023-02-05T04:57:26.982Z,103143.38
2023-02-05T04:59:53.557Z,103130.59
2023-02-05T05:02:20.197Z,103127.00
2023-02-05T05:04:46.865Z,103123.78
2023-02-05T05:07:13.476Z,103123.66
2023-02-05T05:09:40.145Z,103115.81
2023-02-05T05:12:06.842Z,103121.84
2023-02-05T05:14:33.429Z,103113.22
2023-02-05T05:17:00.163Z,103126.09
2023-02-05T05:19:26.797Z,103128.41
2023-02-05T05:21:53.462Z,103138.72
2023-02-05T05:24:20.059Z,103146.69
2023-02-05T05:26:46.697Z,103147.84
2023-02-05T05:29:14.415Z,103139.34
2023-02-05T05:31:41.757Z,103146.84
2023-02-05T05:34:08.468Z,103150.56
2023-02-05T05:36:35.192Z,103151.34
2023-02-05T05:39:21.773Z,103155.34
2023-02-05T05:42:06.871Z,103155.75
2023-02-05T05:44:33.480Z,103149.41
2023-02-05T05:47:00.090Z,103157.53
2023-02-05T05:49:26.703Z,103153.66
2023-02-05T05:51:53.364Z,103159.59
2023-02-05T05:54:20.010Z,103159.34
2023-02-05T05:56:46.719Z,103154.44
2023-02-05T05:59:13.401Z,103173.47
2023-02-05T06:01:40.012Z,103173.75
2023-02-05T06:04:06.665Z,103167.59
2023-02-05T06:06:33.713Z,103164.25
2023-02-05T06:09:00.325Z,103154.19
2023-02-05T06:11:27.024Z,103161.25
2023-02-05T06:13:53.654Z,103155.84
2023-02-05T06:16:20.320Z,103151.59
2023-02-05T06:18:46.937Z,103163.59
2023-02-05T06:21:13.587Z,103151.59
2023-02-05T06:23:40.183Z,103146.56
2023-02-05T06:26:06.817Z,103144.78
2023-02-05T06:28:33.444Z,103139.22
2023-02-05T06:31:00.162Z,103145.16
2023-02-05T06:33:26.831Z,103147.88
2023-02-05T06:35:53.431Z,103149.78
2023-02-05T06:38:20.051Z,103147.69
2023-02-05T06:40:48.054Z,103148.44
2023-02-05T06:43:14.892Z,103141.75
2023-02-05T06:45:41.534Z,103143.59
2023-02-05T06:48:08.120Z,103157.25
2023-02-05T06:50:34.766Z,103148.53
2023-02-05T06:53:01.456Z,103155.53
2023-02-05T06:55:28.085Z,103168.94
2023-02-05T06:57:54.772Z,103178.88
2023-02-05T07:00:21.622Z,103177.84
2023-02-05T07:02:48.311Z,103172.28
2023-02-05T07:05:14.976Z,103159.63
2023-02-05T07:07:41.613Z,103152.28
2023-02-05T07:10:08.473Z,103159.13
2023-02-05T07:12:35.258Z,103152.66
2023-02-05T07:15:01.901Z,103161.44
2023-02-05T07:17:28.572Z,103155.75
2023-02-05T07:19:55.283Z,103153.81
2023-02-05T07:22:25.185Z,103149.44
2023-02-05T07:24:51.796Z,103138.81
2023-02-05T07:27:18.435Z,103143.63
2023-02-05T07:29:45.068Z,103131.41
2023-02-05T07:32:11.867Z,103129.50
2023-02-05T07:34:38.617Z,103124.47
2023-02-05T07:37:05.294Z,103121.59
2023-02-05T07:39:33.414Z,103113.69
2023-02-05T07:42:00.940Z,103112.66
2023-02-05T07:44:27.619Z,103112.31
2023-02-05T07:46:54.407Z,103121.38
2023-02-05T07:49:21.067Z,103126.13
2023-02-05T07:51:47.819Z,103131.69
2023-02-05T07:54:15.631Z,103136.84
2023-02-05T07:56:42.425Z,103140.09
2023-02-05T07:59:09.471Z,103123.44
2023-02-05T08:01:36.104Z,103128.53
2023-02-05T08:04:02.794Z,103126.25
2023-02-05T08:06:29.441Z,103128.47
2023-02-05T08:08:56.187Z,103128.00
2023-02-05T08:11:23.002Z,103129.25
2023-02-05T08:13:49.614Z,103120.34
2023-02-05T08:16:16.524Z,103116.13
2023-02-05T08:18:47.412Z,103122.41
2023-02-05T08:21:14.071Z,103120.72
2023-02-05T08:23:40.685Z,103116.28
2023-02-05T08:26:07.320Z,103124.31
2023-02-05T08:28:33.989Z,103113.09
2023-02-05T08:31:00.664Z,103105.50
2023-02-05T08:33:27.351Z,103111.09
2023-02-05T08:35:54.142Z,103113.16
2023-02-05T08:38:20.813Z,103115.53
2023-02-05T08:40:47.511Z,103122.72
2023-02-05T08:43:14.230Z,103127.81
2023-02-05T08:45:41.009Z,103132.91
2023-02-05T08:48:07.751Z,103132.09
2023-02-05T08:50:34.437Z,103127.50
2023-02-05T08:53:01.131Z,103127.72
2023-02-05T08:55:27.806Z,103125.59
2023-02-05T08:57:55.609Z,103126.03
2023-02-05T09:00:22.347Z,103121.53
2023-02-05T09:02:49.059Z,103113.47
2023-02-05T09:05:15.701Z,103118.53
2023-02-05T09:07:42.514Z,103128.28
2023-02-05T09:10:11.340Z,103129.53
2023-02-05T09:12:38.322Z,103131.69
2023-02-05T09:15:06.222Z,103137.97
2023-02-05T09:17:32.960Z,103132.34
2023-02-05T09:19:59.708Z,103134.03
2023-02-05T09:22:26.409Z,103135.25
2023-02-05T09:24:53.037Z,103132.13
2023-02-05T09:27:19.677Z,103135.28
2023-02-05T09:29:46.377Z,103132.34
2023-02-05T09:32:13.004Z,103130.28
2023-02-05T09:34:39.808Z,103125.78
2023-02-05T09:37:06.469Z,103124.19
2023-02-05T09:42:29.106Z,103120.13
2023-02-05T09:45:06.914Z,103118.97
2023-02-05T09:47:39.631Z,103115.97
2023-02-05T09:50:27.748Z,103107.84
2023-02-05T09:53:06.136Z,103108.63
2023-02-05T09:55:36.395Z,103114.34
2023-02-05T09:58:07.310Z,103122.03
2023-02-05T10:00:46.910Z,103122.47
2023-02-05T10:03:50.554Z,103118.41
2023-02-05T10:06:21.246Z,103109.56
2023-02-05T10:09:04.261Z,103105.03
2023-02-05T10:11:40.983Z,103092.31
2023-02-05T10:14:23.094Z,103083.16
2023-02-05T10:16:55.859Z,103084.53
2023-02-05T10:19:37.990Z,103075.56
2023-02-05T10:22:25.681Z,103070.53
2023-02-05T10:25:20.308Z,103077.72
2023-02-05T10:27:58.129Z,103076.78
2023-02-05T10:30:34.884Z,103073.78
2023-02-05T10:33:08.520Z,103071.88
2023-02-05T10:35:57.497Z,103063.22
2023-02-05T10:38:26.018Z,103059.41
2023-02-05T10:41:00.472Z,103064.03
2023-02-05T10:43:40.825Z,103060.72
2023-02-05T10:46:13.503Z,103058.97
2023-02-05T10:49:00.874Z,103053.91
2023-02-05T10:51:42.979Z,103062.69
2023-02-05T10:54:19.842Z,103074.00
2023-02-05T10:56:47.615Z,103061.63
2023-02-05T10:59:39.156Z,103060.38
2023-02-05T11:02:11.568Z,103066.19
2023-02-05T11:04:47.735Z,103068.97
2023-02-05T11:07:26.304Z,103067.28
2023-02-05T11:09:53.138Z,103057.09
2023-02-05T11:12:32.762Z,103055.84
2023-02-05T11:15:01.299Z,103060.84
2023-02-05T11:17:34.030Z,103046.19
2023-02-05T11:20:05.284Z,103049.91
2023-02-05T11:22:36.878Z,103036.19
2023-02-05T11:25:27.186Z,103045.72
2023-02-05T11:28:04.441Z,103036.19
2023-02-05T11:30:49.949Z,103038.75
2023-02-05T11:33:21.742Z,103046.91
2023-02-05T11:35:54.853Z,103044.06
2023-02-05T11:38:46.256Z,103041.69
2023-02-05T11:41:15.430Z,103035.13
2023-02-05T11:43:51.330Z,103021.94
2023-02-05T11:46:23.428Z,103027.69
2023-02-05T11:49:01.590Z,103028.13
2023-02-05T11:51:44.651Z,103021.50
2023-02-05T11:54:31.821Z,103029.97
2023-02-05T11:57:30.158Z,103021.09
2023-02-05T12:00:02.661Z,103027.53
2023-02-05T12:02:32.859Z,103028.16
2023-02-05T12:05:11.826Z,103033.72
2023-02-05T12:07:53.784Z,103032.50
2023-02-05T12:10:29.726Z,103039.47
2023-02-05T12:13:04.564Z,103029.56
2023-02-05T12:15:44.962Z,103023.38
2023-02-05T12:18:39.081Z,103021.66
2023-02-05T12:21:35.171Z,103034.78
2023-02-05T12:24:16.603Z,103030.88
2023-02-05T12:26:44.835Z,103029.09
2023-02-05T12:29:37.748Z,103028.28
2023-02-05T12:32:24.190Z,103032.66
2023-02-05T12:35:16.708Z,103025.66
2023-02-05T12:38:21.089Z,103029.91
2023-02-05T12:41:22.998Z,103039.59
2023-02-05T12:43:50.448Z,103042.25
2023-02-05T12:46:38.740Z,103043.06
2023-02-05T12:49:24.258Z,103056.78
2023-02-05T12:52:12.241Z,103051.91
2023-02-05T12:55:03.972Z,103054.09
2023-02-05T12:57:38.847Z,103057.00
2023-02-05T13:00:25.188Z,103059.91
2023-02-05T13:02:55.296Z,103055.00
2023-02-05T13:05:30.267Z,103059.50
2023-02-05T13:08:08.886Z,103056.81
2023-02-05T13:10:49.265Z,103054.50
2023-02-05T13:13:19.884Z,103050.31
2023-02-05T13:15:52.215Z,103058.69
2023-02-05T13:18:23.810Z,103058.28
2023-02-05T13:21:14.838Z,103052.91
2023-02-05T13:24:02.246Z,103047.31
2023-02-05T13:26:51.845Z,103068.47
2023-02-05T13:29:19.964Z,103073.09
2023-02-05T13:31:52.539Z,103066.91
2023-02-05T13:34:19.580Z,103065.66
2023-02-05T13:36:58.524Z,103070.75
2023-02-05T13:39:37.172Z,103059.50
2023-02-05T13:42:30.071Z,103060.97
2023-02-05T13:45:38.691Z,103059.94
2023-02-05T13:48:19.202Z,103058.13
2023-02-05T13:51:14.107Z,103061.00
2023-02-05T13:53:56.020Z,103065.78
2023-02-05T13:56:44.275Z,103062.88
2023-02-05T13:59:17.105Z,103054.91
2023-02-05T14:01:50.856Z,103056.69
2023-02-05T14:04:23.484Z,103055.69
2023-02-05T14:07:06.652Z,103056.59
2023-02-05T14:09:44.897Z,103045.03
2023-02-05T14:12:21.186Z,103047.28
2023-02-05T14:15:16.802Z,103036.47
2023-02-05T14:17:53.428Z,103028.09
2023-02-05T14:20:26.149Z,103013.81
2023-02-05T14:22:54.579Z,103019.75
2023-02-05T14:25:39.535Z,103014.47
2023-02-05T14:28:35.486Z,103003.91
2023-02-05T14:31:04.057Z,102993.53
2023-02-05T14:33:32.015Z,102996.56
2023-02-05T14:36:22.733Z,102996.22
2023-02-05T14:39:02.836Z,102998.09
2023-02-05T14:41:51.635Z,103009.31
2023-02-05T14:44:21.043Z,103014.09
2023-02-05T14:47:06.638Z,103018.03
2023-02-05T14:49:33.290Z,103025.03
2023-02-05T14:52:07.480Z,103033.81
2023-02-05T14:54:47.073Z,103044.94
2023-02-05T14:57:28.924Z,103041.00
2023-02-05T15:00:03.891Z,103049.47
2023-02-05T15:02:59.964Z,103056.44
2023-02-05T15:05:35.171Z,103054.66
2023-02-05T15:08:11.927Z,103048.53
2023-02-05T15:10:58.553Z,103049.44
2023-02-05T15:13:26.367Z,103050.09
2023-02-05T15:16:11.735Z,103059.28
2023-02-05T15:18:43.598Z,103064.59
2023-02-05T15:21:25.008Z,103073.97
2023-02-05T15:23:57.421Z,103073.28
2023-02-05T15:26:30.511Z,103073.69
2023-02-05T15:29:12.858Z,103086.34
2023-02-05T15:31:51.738Z,103092.13
2023-02-05T15:34:21.753Z,103095.75
2023-02-05T15:37:00.967Z,103083.28
2023-02-05T15:39:51.964Z,103089.28
2023-02-05T15:42:28.085Z,103092.69
2023-02-05T15:44:55.010Z,103082.91
2023-02-05T15:47:23.741Z,103083.31
2023-02-05T15:49:54.331Z,103071.25
2023-02-05T15:52:23.534Z,103094.91
2023-02-05T15:54:50.837Z,103087.94
2023-02-05T15:57:21.165Z,103083.75
2023-02-05T15:59:48.203Z,103072.25
2023-02-05T16:02:18.880Z,103070.94
2023-02-05T16:04:53.239Z,103056.09
2023-02-05T16:07:22.137Z,103056.50
2023-02-05T16:09:53.644Z,103056.13
2023-02-05T16:12:20.975Z,103059.28
2023-02-05T16:15:01.040Z,103071.84
2023-02-05T16:17:32.634Z,103071.13
2023-02-05T16:20:12.891Z,103059.13
2023-02-05T16:22:45.456Z,103056.63
2023-02-05T16:25:20.572Z,103060.72
2023-02-05T16:27:49.461Z,103047.56
2023-02-05T16:30:43.733Z,103048.75
2023-02-05T16:33:21.214Z,103070.47
2023-02-05T16:35:48.513Z,103071.56
2023-02-05T16:38:17.322Z,103068.34
2023-02-05T16:40:46.262Z,103073.00
2023-02-05T16:43:31.391Z,103073.81
2023-02-05T16:46:07.399Z,103074.94
2023-02-05T16:48:37.002Z,103085.06
2023-02-05T16:51:04.296Z,103089.06
2023-02-05T16:53:33.265Z,103088.81
2023-02-05T16:56:02.252Z,103087.94
2023-02-05T16:58:36.772Z,103101.00
2023-02-05T17:01:04.338Z,103103.03
2023-02-05T17:03:35.444Z,103091.13
2023-02-05T17:06:03.630Z,103101.34
2023-02-05T17:08:33.410Z,103096.28
2023-02-05T17:11:02.345Z,103105.84
2023-02-05T17:13:42.899Z,103107.31
2023-02-05T17:16:30.546Z,103107.91
2023-02-05T17:18:59.513Z,103109.13
2023-02-05T17:21:34.262Z,103118.03
2023-02-05T17:24:03.818Z,103116.13
2023-02-05T17:26:37.439Z,103115.22
2023-02-05T17:29:06.252Z,103115.25
2023-02-05T17:31:36.121Z,103119.78
2023-02-05T17:34:04.244Z,103118.31
2023-02-05T17:36:30.885Z,103119.84
2023-02-05T17:38:57.541Z,103112.88
2023-02-05T17:41:45.112Z,103116.38
2023-02-05T17:44:15.715Z,103123.59
2023-02-05T17:46:43.454Z,103141.44
2023-02-05T17:49:10.351Z,103156.16
2023-02-05T17:51:41.585Z,103162.13
2023-02-05T17:54:17.236Z,103171.47
2023-02-05T17:56:44.991Z,103173.56
2023-02-05T17:59:14.501Z,103164.06
2023-02-05T18:01:41.164Z,103163.72
2023-02-05T18:04:07.883Z,103164.03
2023-02-05T18:06:35.230Z,103174.16
2023-02-05T18:09:02.038Z,103175.34
2023-02-05T18:11:28.871Z,103172.88
2023-02-05T18:13:55.528Z,103171.75
2023-02-05T18:16:22.292Z,103161.84
2023-02-05T18:18:49.128Z,103163.34
2023-02-05T18:21:15.872Z,103176.25
2023-02-05T18:23:42.847Z,103176.00
2023-02-05T18:26:09.853Z,103176.66
2023-02-05T18:28:36.515Z,103171.56
2023-02-05T18:31:06.309Z,103181.59
2023-02-05T18:33:33.305Z,103186.84
2023-02-05T18:36:07.091Z,103186.88
2023-02-05T18:38:34.533Z,103192.66
2023-02-05T18:41:15.724Z,103196.03
2023-02-05T18:43:42.691Z,103200.13
2023-02-05T18:46:14.764Z,103209.16
2023-02-05T18:48:41.699Z,103204.53
2023-02-05T18:51:10.562Z,103224.66
2023-02-05T18:53:39.170Z,103226.69
2023-02-05T18:56:08.188Z,103225.56
2023-02-05T18:58:35.894Z,103219.53
2023-02-05T19:01:12.331Z,103225.78
2023-02-05T19:03:40.824Z,103222.28
2023-02-05T19:06:09.010Z,103220.34
2023-02-05T19:08:36.103Z,103210.00
2023-02-05T19:11:07.622Z,103210.41
2023-02-05T19:13:35.790Z,103198.91
2023-02-05T19:16:08.571Z,103204.22
2023-02-05T19:18:35.311Z,103205.00
2023-02-05T19:21:06.779Z,103204.69
2023-02-05T19:23:34.325Z,103197.44
2023-02-05T19:26:10.113Z,103200.25
2023-02-05T19:28:37.326Z,103204.25
2023-02-05T19:31:09.353Z,103207.22
2023-02-05T19:33:37.184Z,103200.41
2023-02-05T19:36:05.614Z,103201.81
2023-02-05T19:38:35.161Z,103205.97
2023-02-05T19:41:07.047Z,103187.41
2023-02-05T19:43:34.724Z,103194.88
2023-02-05T19:46:05.865Z,103203.66
2023-02-05T19:48:32.755Z,103208.03
2023-02-05T19:51:06.866Z,103195.66
2023-02-05T19:53:34.372Z,103195.66
2023-02-05T19:56:06.846Z,103195.91
2023-02-05T19:58:34.933Z,103186.00
2023-02-05T20:01:01.573Z,103177.09
2023-02-05T20:03:31.284Z,103172.06
2023-02-05T20:06:01.037Z,103178.22
2023-02-05T20:08:29.358Z,103166.13
2023-02-05T20:11:00.300Z,103171.56
2023-02-05T20:13:28.364Z,103170.78
2023-02-05T20:15:55.425Z,103164.75
2023-02-05T20:18:22.987Z,103175.78
2023-02-05T20:20:49.756Z,103157.25
2023-02-05T20:23:16.650Z,103161.34
2023-02-05T20:25:43.619Z,103178.88
2023-02-05T20:28:10.352Z,103188.81
2023-02-05T20:31:09.396Z,103187.28
2023-02-05T20:33:36.085Z,103191.44
2023-02-05T20:36:08.115Z,103198.03
2023-02-05T20:38:34.777Z,103198.69
2023-02-05T20:41:14.403Z,103208.47
2023-02-05T20:43:41.045Z,103216.84
2023-02-05T20:46:08.196Z,103229.06
2023-02-05T20:48:34.878Z,103234.44
2023-02-05T20:51:22.618Z,103238.69
2023-02-05T20:53:49.450Z,103246.56
2023-02-05T20:56:18.223Z,103246.84
2023-02-05T20:58:44.926Z,103240.47
2023-02-05T21:01:22.965Z,103253.56
2023-02-05T21:03:51.770Z,103258.91
2023-02-05T21:06:20.511Z,103257.63
2023-02-05T21:08:48.433Z,103271.03
2023-02-05T21:11:16.009Z,103279.28
2023-02-05T21:13:44.518Z,103275.63
2023-02-05T21:16:15.410Z,103276.50
2023-02-05T21:18:44.226Z,103269.97
2023-02-05T21:21:13.278Z,103267.69
2023-02-05T21:23:40.032Z,103268.94
2023-02-05T21:26:07.168Z,103270.50
2023-02-05T21:28:33.855Z,103273.16
2023-02-05T21:31:05.486Z,103287.53
2023-02-05T21:33:32.203Z,103286.41
2023-02-05T21:36:08.480Z,103284.19
2023-02-05T21:38:36.706Z,103283.59
2023-02-05T21:41:11.867Z,103291.31
2023-02-05T21:43:38.551Z,103283.03
2023-02-05T21:46:09.411Z,103272.09
2023-02-05T21:48:36.244Z,103287.25
2023-02-05T21:51:12.728Z,103288.72
2023-02-05T21:53:39.900Z,103290.47
2023-02-05T21:56:10.225Z,103277.81
2023-02-05T21:58:43.566Z,103269.25
2023-02-05T22:01:18.306Z,103265.44
2023-02-05T22:03:57.592Z,103266.97
2023-02-05T22:06:25.894Z,103272.44
2023-02-05T22:08:53.110Z,103261.13
2023-02-05T22:11:21.684Z,103261.41
2023-02-05T22:13:50.600Z,103267.59
2023-02-05T22:16:28.080Z,103259.47
2023-02-05T22:18:55.596Z,103255.28
2023-02-05T22:21:30.002Z,103250.16
2023-02-05T22:23:59.184Z,103248.34
2023-02-05T22:26:35.457Z,103236.00
2023-02-05T22:29:04.632Z,103245.63
2023-02-05T22:31:31.466Z,103244.19
2023-02-05T22:34:00.639Z,103238.06
2023-02-05T22:36:32.509Z,103226.06
2023-02-05T22:38:59.325Z,103232.72
2023-02-05T22:41:28.763Z,103230.09
2023-02-05T22:43:57.062Z,103236.41
2023-02-05T22:46:26.028Z,103231.00
2023-02-05T22:48:53.665Z,103235.38
2023-02-05T22:51:23.006Z,103232.72
2023-02-05T22:53:54.968Z,103225.16
2023-02-05T22:56:21.913Z,103234.16
2023-02-05T22:58:49.469Z,103247.78
2023-02-05T23:01:20.595Z,103247.31
2023-02-05T23:03:51.794Z,103237.88
2023-02-05T23:06:24.571Z,103229.66
2023-02-05T23:09:07.622Z,103227.44
2023-02-05T23:11:34.967Z,103225.47
2023-02-05T23:14:05.638Z,103219.31
2023-02-05T23:16:34.853Z,103228.81
2023-02-05T23:19:07.563Z,103231.25
2023-02-05T23:21:35.560Z,103227.78
2023-02-05T23:24:02.428Z,103221.94
2023-02-05T23:26:32.155Z,103210.19
2023-02-05T23:28:59.197Z,103216.69
2023-02-05T23:31:29.331Z,103208.47
2023-02-05T23:33:55.967Z,103209.72
2023-02-05T23:36:28.418Z,103197.03
2023-02-05T23:38:58.834Z,103192.53
2023-02-05T23:41:37.258Z,103200.22
2023-02-05T23:44:14.070Z,103212.56
2023-02-05T23:46:43.318Z,103213.97
2023-02-05T23:49:10.455Z,103214.44
2023-02-05T23:51:37.717Z,103216.41
2023-02-05T23:54:05.376Z,103213.91
2023-02-05T23:56:32.112Z,103210.78
2023-02-05T23:58:59.252Z,103214.53
